Time;durP1;ratioP1;P1;durP2;ratioP2;P2;SDS_P1;SDS_P2;PMS_P1;PMS_P2;Temp;Humidity;BMP_temperature;BMP_pressure;BME280_temperature;BME280_humidity;BME280_pressure;Samples;Min_cycle;Max_cycle;Signal;HPM_P1;HPM_P2
2022/03/11 00:00:29;;;;;;;23.67;12.68;;;;;;;3.53;58.43;101828.53;4936478;29;20110;-76
2022/03/11 00:02:55;;;;;;;23.83;13.00;;;;;;;3.57;58.55;101840.41;4935848;29;20027;-80
2022/03/11 00:05:20;;;;;;;21.80;12.75;;;;;;;3.54;58.58;101840.47;4936082;29;20028;-76
2022/03/11 00:07:45;;;;;;;25.15;13.85;;;;;;;3.49;58.95;101833.75;4936149;29;20110;-78
2022/03/11 00:10:11;;;;;;;26.02;13.05;;;;;;;3.45;58.84;101827.88;4935954;28;20024;-76
2022/03/11 00:12:37;;;;;;;23.77;13.43;;;;;;;3.25;58.80;101794.19;4935685;28;20027;-76
2022/03/11 00:15:05;;;;;;;23.63;13.63;;;;;;;3.30;59.43;101808.53;4936553;29;20425;-81
2022/03/11 00:17:30;;;;;;;23.77;13.27;;;;;;;3.34;58.56;101814.41;4937673;29;20083;-76
2022/03/11 00:19:55;;;;;;;21.02;11.90;;;;;;;3.44;58.62;101826.16;4968735;28;20115;-76
2022/03/11 00:22:21;;;;;;;22.05;12.80;;;;;;;3.28;58.63;101794.13;4936570;29;20067;-90
2022/03/11 00:24:46;;;;;;;22.77;12.90;;;;;;;3.42;58.09;101815.97;4936576;29;20389;-80
2022/03/11 00:27:14;;;;;;;19.65;11.73;;;;;;;3.30;57.86;101800.03;4936689;28;20023;-79
2022/03/11 00:29:40;;;;;;;22.42;12.57;;;;;;;3.42;58.23;101813.41;4936501;29;20040;-77
2022/03/11 00:32:06;;;;;;;23.95;13.15;;;;;;;3.49;58.18;101819.25;4938944;29;20157;-88
2022/03/11 00:34:31;;;;;;;22.58;12.55;;;;;;;3.49;58.43;101813.31;4946991;29;20072;-80
2022/03/11 00:36:58;;;;;;;21.48;12.68;;;;;;;3.54;58.23;101819.16;4948165;29;20032;-75
2022/03/11 00:39:23;;;;;;;22.88;13.00;;;;;;;3.57;57.88;101814.88;4937843;29;20042;-88
2022/03/11 00:41:49;;;;;;;21.55;12.38;;;;;;;3.47;57.23;101787.81;4935766;29;20024;-74
2022/03/11 00:44:14;;;;;;;23.50;12.93;;;;;;;3.37;57.10;101765.88;4935687;29;20065;-90
2022/03/11 00:46:40;;;;;;;21.20;12.57;;;;;;;3.57;57.08;101801.25;4935434;29;20044;-85
2022/03/11 00:49:05;;;;;;;22.15;12.70;;;;;;;3.64;57.31;101808.78;4935433;29;20031;-84
2022/03/11 00:51:31;;;;;;;20.52;12.55;;;;;;;3.51;57.51;101791.97;4935584;29;20027;-89
2022/03/11 00:53:56;;;;;;;21.85;13.13;;;;;;;3.61;57.09;101818.19;4935194;29;20027;-87
2022/03/11 00:56:21;;;;;;;20.85;12.23;;;;;;;3.61;57.02;101813.09;4935439;29;20409;-88
2022/03/11 00:58:46;;;;;;;25.95;13.32;;;;;;;3.58;56.71;101800.38;4935776;29;20389;-90
2022/03/11 01:01:12;;;;;;;22.70;12.73;;;;;;;3.57;57.13;101801.25;4935445;29;20027;-90
2022/03/11 01:03:37;;;;;;;22.23;12.95;;;;;;;3.48;57.27;101793.75;4939550;29;20028;-87
2022/03/11 01:06:03;;;;;;;21.55;11.13;;;;;;;3.60;57.00;101804.59;4937782;28;20031;-91
2022/03/11 01:08:28;;;;;;;23.58;12.07;;;;;;;3.61;56.94;101802.88;4935331;29;20059;-88
2022/03/11 01:10:53;;;;;;;20.33;11.65;;;;;;;3.13;56.81;101724.59;4935516;28;20028;-91
2022/03/11 01:13:19;;;;;;;20.70;12.20;;;;;;;3.55;57.22;101785.13;4935366;29;20027;-93
2022/03/11 01:24:16;;;;;;;21.52;11.80;;;;;;;3.16;57.00;101716.91;5649412;23;20059;-82
2022/03/11 01:26:44;;;;;;;22.13;10.95;;;;;;;3.06;56.96;101704.34;4935261;28;20468;-81
2022/03/11 01:29:10;;;;;;;21.83;12.02;;;;;;;3.22;56.98;101715.09;4938822;29;20106;-81
2022/03/11 01:31:35;;;;;;;21.92;12.48;;;;;;;3.34;57.19;101742.94;4938619;29;20111;-82
2022/03/11 01:34:00;;;;;;;23.40;12.35;;;;;;;3.42;57.29;101746.19;4938699;28;20024;-82
2022/03/11 01:36:26;;;;;;;22.08;12.10;;;;;;;3.33;56.78;101725.94;4938714;29;20027;-81
2022/03/11 01:38:51;;;;;;;21.08;12.23;;;;;;;3.55;56.71;101757.03;4938552;29;20039;-81
2022/03/11 01:41:16;;;;;;;22.73;12.20;;;;;;;3.53;56.45;101759.59;4938620;29;20031;-81
2022/03/11 01:43:52;;;;;;;22.27;12.30;;;;;;;3.50;57.28;101746.88;4938268;29;20028;-81
2022/03/11 01:46:18;;;;;;;20.60;11.93;;;;;;;3.49;56.61;101745.22;4938522;28;20046;-80
2022/03/11 01:48:43;;;;;;;21.70;12.48;;;;;;;3.37;56.77;101727.59;4938428;29;20528;-82
2022/03/11 01:51:08;;;;;;;22.27;12.55;;;;;;;3.01;56.69;101668.66;4938523;28;20066;-81
2022/03/11 01:53:35;;;;;;;23.98;12.52;;;;;;;2.97;57.44;101650.91;4938416;28;20024;-81
2022/03/11 01:56:00;;;;;;;22.80;12.15;;;;;;;3.47;57.10;101726.53;4938477;28;20042;-81
2022/03/11 01:58:27;;;;;;;23.90;12.80;;;;;;;3.24;56.91;101688.66;4938216;28;20036;-81
2022/03/11 02:00:55;;;;;;;23.30;12.30;;;;;;;3.41;57.43;101716.44;4938371;28;20027;-85
2022/03/11 02:17:09;;;;;;;24.30;12.18;;;;;;;2.13;57.08;101510.47;4938254;29;20038;-85
2022/03/11 02:27:29;;;;;;;22.00;12.35;;;;;;;3.14;57.81;101692.25;4929107;29;20400;-86
2022/03/11 02:30:29;;;;;;;22.70;12.10;;;;;;;3.05;58.20;101689.91;4968567;28;20071;-85
2022/03/11 02:44:04;;;;;;;21.67;11.73;;;;;;;2.94;58.43;101673.91;4937058;29;20040;-85
2022/03/11 02:47:04;;;;;;;22.60;12.32;;;;;;;2.93;58.82;101677.31;4937627;29;20115;-85
2022/03/11 02:49:54;;;;;;;24.63;12.93;;;;;;;2.93;58.27;101672.22;4937459;29;20012;-84
2022/03/11 03:33:59;;;;;;;23.17;13.27;;;;;;;2.55;58.31;101587.88;4920475;29;20062;-81
2022/03/11 03:56:53;;;;;;;22.98;12.32;;;;;;;1.49;58.25;101419.03;4936096;29;20043;-81
2022/03/11 03:59:27;;;;;;;22.05;12.18;;;;;;;1.53;58.33;101423.19;4936079;29;20127;-81
2022/03/11 04:09:19;;;;;;;23.17;11.95;;;;;;;1.26;58.71;101407.47;4936346;29;20452;-81
2022/03/11 04:11:45;;;;;;;22.73;11.65;;;;;;;2.72;58.49;101630.09;4936104;28;20035;-80
2022/03/11 04:20:48;;;;;;;19.88;10.93;;;;;;;1.43;58.55;101427.59;4935915;29;20148;-80
2022/03/11 04:26:50;;;;;;;21.88;10.98;;;;;;;2.24;58.85;101566.31;4935867;29;20046;-80
2022/03/11 04:33:30;;;;;;;22.88;11.88;;;;;;;2.68;58.69;101623.38;4935540;29;20054;-80
2022/03/11 04:39:31;;;;;;;21.95;11.27;;;;;;;2.18;58.64;101554.53;4935734;29;20117;-82
2022/03/11 04:42:39;;;;;;;27.17;12.73;;;;;;;2.61;58.58;101614.97;4935542;29;20028;-80
2022/03/11 04:45:30;;;;;;;20.98;11.82;;;;;;;2.59;58.47;101616.72;4966034;28;20757;-81
2022/03/11 04:47:58;;;;;;;23.13;11.00;;;;;;;1.41;58.67;101426.78;4935322;29;20035;-80
2022/03/11 04:51:19;;;;;;;;;;;;;;;;;;;;;
2022/03/11 05:00:48;;;;;;;20.42;11.02;;;;;;;1.43;59.09;101465.75;4934872;29;20039;-81
2022/03/11 05:04:03;;;;;;;20.77;11.23;;;;;;;2.53;58.88;101614.25;4938434;29;20502;-81
2022/03/11 05:07:33;;;;;;;20.02;11.35;;;;;;;2.59;58.75;101612.47;4939512;29;20039;-83
2022/03/11 05:13:38;;;;;;;20.27;10.57;;;;;;;1.18;58.82;101394.06;4939335;29;20127;-85
2022/03/11 05:16:03;;;;;;;23.65;11.05;;;;;;;2.54;59.15;101605.75;4938948;28;20028;-86
2022/03/11 05:18:29;;;;;;;30.65;11.55;;;;;;;2.52;58.91;101608.31;4938993;28;20111;-84
2022/03/11 05:20:54;;;;;;;20.83;11.57;;;;;;;2.05;59.09;101539.47;4938780;29;20687;-86
2022/03/11 05:23:21;;;;;;;20.50;10.85;;;;;;;1.82;59.20;101497.41;4939498;29;20035;-85
2022/03/11 05:40:43;;;;;;;23.30;10.75;;;;;;;2.72;58.45;101592.69;4938567;29;20116;-84
2022/03/11 05:43:47;;;;;;;21.58;11.05;;;;;;;2.69;58.95;101586.81;4938500;29;20121;-85
2022/03/11 06:00:09;;;;;;;21.17;10.57;;;;;;;2.83;58.78;101587.38;4938124;29;20201;-80
2022/03/11 06:05:59;;;;;;;19.92;10.80;;;;;;;1.99;59.09;101438.53;4938243;29;20047;-79
2022/03/11 06:08:24;;;;;;;23.05;11.68;;;;;;;2.37;58.65;101506.66;4938065;29;20362;-79
2022/03/11 06:10:56;;;;;;;22.45;11.27;;;;;;;1.92;58.81;101434.41;4938051;29;20062;-80
2022/03/11 06:13:58;;;;;;;24.38;11.60;;;;;;;2.85;58.99;101588.19;4937920;29;20035;-80
2022/03/11 06:17:01;;;;;;;21.27;11.10;;;;;;;2.88;58.97;101593.25;4937900;29;20043;-79
2022/03/11 06:47:27;;;;;;;28.08;12.75;;;;;;;2.11;59.01;101374.63;4937454;29;20127;-79
2022/03/11 06:50:12;;;;;;;24.67;12.63;;;;;;;3.05;58.75;101531.69;4936546;29;20055;-79
2022/03/11 07:03:20;;;;;;;25.10;11.63;;;;;;;3.75;58.30;101581.22;5634259;23;20107;-79
2022/03/11 07:06:16;;;;;;;23.77;12.35;;;;;;;3.84;58.07;101581.03;4951130;28;20041;-79
2022/03/11 07:19:51;;;;;;;26.33;12.23;;;;;;;4.24;57.36;101563.00;4936655;29;20415;-80
2022/03/11 07:22:20;;;;;;;26.52;12.80;;;;;;;4.09;56.49;101519.94;4936784;29;20078;-83
2022/03/11 07:24:45;;;;;;;23.42;11.32;;;;;;;4.04;56.27;101503.88;4936201;29;20035;-82
2022/03/11 07:34:03;;;;;;;27.85;13.07;;;;;;;3.49;55.79;101361.38;4934360;29;20078;-82
2022/03/11 07:43:18;;;;;;;22.98;12.93;;;;;;;4.51;55.23;101486.44;4934608;29;20030;-80
2022/03/11 07:49:06;;;;;;;22.48;12.88;;;;;;;4.70;54.95;101482.50;4934717;29;19926;-80
2022/03/11 07:51:32;;;;;;;23.67;12.90;;;;;;;4.99;54.54;101522.63;4984511;23;20442;-81
2022/03/11 07:54:09;;;;;;;28.73;12.63;;;;;;;5.25;54.74;101551.75;4950695;29;20135;-83
2022/03/11 07:56:35;;;;;;;29.23;13.80;;;;;;;5.38;54.23;101566.69;4936043;29;20480;-81
2022/03/11 08:02:36;;;;;;;23.55;13.23;;;;;;;4.84;53.84;101436.06;4936184;29;20047;-80
2022/03/11 08:08:27;;;;;;;23.30;13.30;;;;;;;4.61;53.63;101367.66;4936418;29;20094;-78
2022/03/11 08:10:58;;;;;;;26.40;13.10;;;;;;;4.70;53.28;101366.53;4935950;28;20107;-77
2022/03/11 08:13:39;;;;;;;;;;;;;;;5.77;53.58;101543.31;4936565;29;20087;-77
2022/03/11 08:29:49;;;;;;;26.83;15.43;;;;;;;5.11;52.45;101350.75;4968708;23;20055;-81
2022/03/11 08:32:15;;;;;;;26.75;14.32;;;;;;;5.13;52.38;101348.16;4935652;29;20047;-86
2022/03/11 08:35:06;;;;;;;28.88;15.30;;;;;;;6.35;53.39;101525.22;4966375;28;20054;-84
2022/03/11 08:40:23;;;;;;;29.15;14.70;;;;;;;5.61;52.48;101378.16;4935895;29;20090;-84
2022/03/11 09:10:29;;;;;;;26.17;15.95;;;;;;;6.74;51.61;101436.56;5557167;23;20107;-85
2022/03/11 09:13:52;;;;;;;27.40;16.07;;;;;;;7.29;51.62;101514.09;4966108;28;20098;-86
2022/03/11 09:16:23;;;;;;;27.98;15.77;;;;;;;6.22;51.25;101319.66;4958218;28;20035;-85
2022/03/11 09:18:52;;;;;;;27.55;14.50;;;;;;;6.24;51.30;101312.72;4935160;29;20036;-86
2022/03/11 09:21:17;;;;;;;27.40;14.65;;;;;;;7.07;51.40;101428.47;4934988;29;20111;-85
2022/03/11 09:26:28;;;;;;;26.65;15.70;;;;;;;6.49;51.80;101300.66;4039303;26;20489;-85
2022/03/11 09:29:16;;;;;;;24.42;14.43;;;;;;;7.71;50.84;101491.00;4935439;28;20131;-85
2022/03/11 09:31:53;;;;;;;30.63;15.65;;;;;;;6.61;51.10;101307.88;4934997;29;20036;-87
2022/03/11 09:34:31;;;;;;;29.35;15.45;;;;;;;6.59;51.63;101278.88;4934549;29;20495;-79
2022/03/11 09:36:59;;;;;;;32.47;16.13;;;;;;;7.71;51.49;101452.44;4966234;28;20051;-79
2022/03/11 09:39:30;;;;;;;28.65;15.73;;;;;;;7.89;51.41;101465.44;4935328;29;20404;-89
2022/03/11 09:42:15;;;;;;;26.60;15.40;;;;;;;8.08;51.46;101486.91;4934413;29;20024;-85
2022/03/11 09:44:57;;;;;;;27.42;15.85;;;;;;;7.08;50.53;101299.16;4935636;29;20027;-81
2022/03/11 09:50:54;;;;;;;26.30;14.48;;;;;;;8.34;51.12;101468.63;4938998;29;20081;-86
2022/03/11 09:53:23;;;;;;;27.33;15.20;;;;;;;7.66;49.70;101328.38;4938529;28;20034;-87
2022/03/11 09:55:48;;;;;;;30.33;14.32;;;;;;;7.74;50.39;101335.78;4939607;29;20027;-86
2022/03/11 09:58:13;;;;;;;29.10;14.80;;;;;;;8.04;49.46;101364.47;4939203;28;20503;-87
2022/03/11 10:11:49;;;;;;;31.17;14.77;;;;;;;7.64;49.56;101226.56;4936124;29;20452;-87
2022/03/11 10:17:57;;;;;;;30.17;14.52;;;;;;;9.15;50.05;101428.94;4938521;29;20504;-87
2022/03/11 10:20:25;;;;;;;29.95;14.80;;;;;;;9.28;50.28;101416.28;4938057;29;20531;-85
2022/03/11 10:22:53;;;;;;;26.00;15.02;;;;;;;9.15;50.12;101389.44;5067160;23;20040;-88
2022/03/11 10:25:23;;;;;;;27.27;15.13;;;;;;;8.94;49.65;101341.50;4937958;29;20481;-85
2022/03/11 10:30:19;;;;;;;26.98;14.93;;;;;;;8.83;49.30;101301.66;4937174;29;20571;-89
2022/03/11 10:35:56;;;;;;;26.25;14.70;;;;;;;9.66;50.15;101409.25;5029783;23;20062;-83
2022/03/11 10:38:56;;;;;;;27.92;15.27;;;;;;;8.62;49.31;101217.72;4898110;29;20075;-81
2022/03/11 10:41:58;;;;;;;26.77;15.45;;;;;;;8.89;49.83;101249.84;4930065;29;20029;-84
2022/03/11 10:44:56;;;;;;;28.42;15.85;;;;;;;9.88;49.42;101400.44;4916349;29;20040;-81
2022/03/11 10:50:22;;;;;;;28.40;15.10;;;;;;;9.36;49.34;101271.59;4881515;27;20064;-84
2022/03/11 10:53:23;;;;;;;24.50;13.40;;;;;;;9.18;49.37;101232.13;4948761;28;20051;-88
2022/03/11 10:56:55;;;;;;;27.10;14.65;;;;;;;9.28;49.86;101224.75;4917020;29;20095;-82
2022/03/11 11:07:16;;;;;;;34.83;16.58;;;;;;;9.87;47.84;101283.53;4942152;23;20071;-82
2022/03/11 11:44:53;;;;;;;34.08;17.38;;;;;;;10.90;47.76;101322.66;2986238;23;20060;-79
2022/03/11 11:48:33;;;;;;;32.53;17.63;;;;;;;10.98;47.41;101310.16;4936351;29;20082;-80
2022/03/11 11:55:22;;;;;;;35.17;19.27;;;;;;;11.04;46.82;101304.66;4937600;29;20122;-77
2022/03/11 12:04:52;;;;;;;29.95;16.60;;;;;;;11.12;46.68;101307.63;4933999;29;20046;-79
2022/03/11 12:11:22;;;;;;;35.05;17.85;;;;;;;11.22;47.14;101282.06;4933904;29;20421;-83
2022/03/11 12:21:06;;;;;;;32.95;19.83;;;;;;;11.42;46.41;101275.72;4934062;29;20034;-81
2022/03/11 12:24:27;;;;;;;33.30;19.23;;;;;;;11.45;46.21;101260.84;4901845;29;20032;-88
2022/03/11 12:30:57;;;;;;;35.00;20.10;;;;;;;11.52;46.76;101256.16;4952550;28;20094;-86
2022/03/11 12:33:57;;;;;;;29.40;18.02;;;;;;;11.58;45.85;101263.53;4895640;29;20060;-87
2022/03/11 12:36:40;;;;;;;33.67;17.63;;;;;;;11.63;45.46;101260.69;4886515;29;20037;-87
2022/03/11 12:42:40;;;;;;;33.38;18.40;;;;;;;11.69;45.40;101245.59;4877030;29;20140;-87
2022/03/11 12:48:46;;;;;;;36.38;18.55;;;;;;;10.62;45.50;101050.47;4877580;29;20052;-86
2022/03/11 12:51:26;;;;;;;30.77;19.40;;;;;;;11.36;45.54;101159.72;4876727;29;20125;-86
2022/03/11 12:53:53;;;;;;;34.58;18.83;;;;;;;11.78;45.13;101224.34;4892649;29;20041;-86
2022/03/11 12:56:37;;;;;;;32.20;20.70;;;;;;;11.30;46.06;101136.81;4876581;29;20097;-88
2022/03/11 12:59:10;;;;;;;32.15;20.33;;;;;;;10.81;45.00;101054.50;4861269;29;20613;-88
2022/03/11 13:05:00;;;;;;;33.35;19.77;;;;;;;11.86;45.15;101220.47;4933647;29;20123;-88
2022/03/11 13:11:28;;;;;;;33.58;20.80;;;;;;;11.91;45.29;101224.47;4933152;29;20086;-88
2022/03/11 13:14:39;;;;;;;35.28;20.25;;;;;;;11.95;45.02;101214.75;4933182;29;20038;-88
2022/03/11 13:38:19;;;;;;;36.25;19.40;;;;;;;11.05;45.37;100975.50;5918200;23;20015;-76
2022/03/11 13:55:21;;;;;;;33.63;19.45;;;;;;;12.67;45.20;101166.06;5524347;23;20130;-78
2022/03/11 13:57:50;;;;;;;31.67;18.17;;;;;;;12.45;44.54;101125.22;4983349;23;20055;-77
2022/03/11 14:00:36;;;;;;;36.00;18.75;;;;;;;12.71;44.10;101173.56;4938190;29;20024;-77
2022/03/11 14:03:43;;;;;;;30.17;18.92;;;;;;;11.73;44.76;101005.66;4955072;28;20105;-78
2022/03/11 14:06:08;;;;;;;38.22;19.27;;;;;;;12.57;44.39;101143.38;4954838;29;20038;-78
2022/03/11 14:08:33;;;;;;;30.77;18.30;;;;;;;12.70;44.60;101158.13;4955152;28;20040;-75
2022/03/11 14:11:36;;;;;;;31.85;20.33;;;;;;;12.16;44.32;101060.63;4960763;28;20089;-74
2022/03/11 14:14:24;;;;;;;36.58;20.13;;;;;;;11.49;44.49;100959.75;4954791;28;20113;-77
2022/03/11 14:16:57;;;;;;;31.77;19.20;;;;;;;11.54;44.88;100968.97;4955101;28;20035;-76
2022/03/11 14:19:40;;;;;;;34.85;19.38;;;;;;;11.87;44.68;101023.72;4954996;28;20614;-79
2022/03/11 14:22:08;;;;;;;35.85;19.65;;;;;;;11.48;44.19;100941.75;4954944;28;20128;-88
2022/03/11 14:25:19;;;;;;;38.60;20.92;;;;;;;12.17;44.58;101048.53;4954797;28;20039;-84
2022/03/11 14:27:44;;;;;;;33.22;20.02;;;;;;;11.63;44.04;100950.28;4940845;29;20050;-82
2022/03/11 14:30:10;;;;;;;35.03;20.45;;;;;;;11.86;44.41;100982.41;4954647;28;20035;-79
2022/03/11 14:32:54;;;;;;;36.13;18.45;;;;;;;12.70;44.40;101122.66;4954910;28;20027;-83
2022/03/11 14:35:29;;;;;;;31.45;18.67;;;;;;;11.65;45.42;100940.66;4954590;28;20039;-83
2022/03/11 14:38:06;;;;;;;32.30;19.98;;;;;;;11.66;44.60;100944.88;4954896;28;20066;-83
2022/03/11 14:40:34;;;;;;;34.25;19.20;;;;;;;12.41;44.28;101048.66;4941974;29;20044;-83
2022/03/11 14:43:00;;;;;;;35.50;19.13;;;;;;;12.90;43.54;101114.38;4935797;29;20118;-84
2022/03/11 14:45:47;;;;;;;30.73;20.10;;;;;;;12.52;43.90;101054.78;4936971;29;20547;-82
2022/03/11 14:48:12;;;;;;;32.78;19.13;;;;;;;12.92;43.46;101122.88;4937526;29;20028;-80
2022/03/11 14:50:58;;;;;;;34.20;18.77;;;;;;;12.48;43.81;101047.31;4937392;29;20055;-82
2022/03/11 14:53:23;;;;;;;29.92;19.20;;;;;;;12.94;43.42;101120.16;4937134;28;20491;-84
2022/03/11 14:55:54;;;;;;;34.80;20.05;;;;;;;12.23;43.40;101001.53;4937257;29;20115;-84
2022/03/11 14:58:31;;;;;;;28.83;19.30;;;;;;;11.78;44.12;100942.31;4967564;28;20055;-84
2022/03/11 15:04:21;;;;;;;33.70;19.05;;;;;;;11.90;44.19;100978.72;4916472;29;20123;-87
2022/03/11 15:06:58;;;;;;;33.67;19.42;;;;;;;11.54;44.66;100923.25;4900113;29;20076;-82
2022/03/11 15:09:24;;;;;;;37.00;19.52;;;;;;;11.59;44.88;100946.22;4916108;29;20497;-80
2022/03/11 15:21:30;;;;;;;31.67;17.98;;;;;;;12.50;44.05;101118.00;4931853;23;20066;-79
2022/03/11 15:24:11;;;;;;;31.48;17.80;;;;;;;11.76;44.71;101013.22;4936842;29;20059;-79
2022/03/11 15:26:52;;;;;;;36.80;19.02;;;;;;;11.61;44.79;100988.34;4936580;29;20023;-78
2022/03/11 15:29:21;;;;;;;33.70;19.23;;;;;;;11.51;44.37;100985.53;4936728;29;20058;-77
2022/03/11 15:31:49;;;;;;;37.58;18.88;;;;;;;11.46;44.49;100990.16;4950660;28;20071;-77
2022/03/11 15:34:28;;;;;;;30.42;18.25;;;;;;;11.87;44.59;101061.69;4937080;29;20027;-79
2022/03/11 15:36:57;;;;;;;31.83;19.10;;;;;;;11.30;45.34;100961.00;4936351;29;20082;-77
2022/03/11 15:39:34;;;;;;;34.33;19.90;;;;;;;12.20;45.25;101126.84;4936307;29;20046;-77
2022/03/11 15:42:23;;;;;;;34.22;19.67;;;;;;;12.11;45.61;101116.25;4936263;29;20032;-77
2022/03/11 15:48:07;;;;;;;35.22;18.40;;;;;;;11.17;45.86;100992.81;4896455;29;20136;-79
2022/03/11 15:54:30;;;;;;;34.83;20.90;;;;;;;11.96;45.86;101118.88;4914641;29;20071;-79
2022/03/11 15:56:56;;;;;;;34.50;20.15;;;;;;;11.44;45.45;101039.38;4914635;29;20115;-78
2022/03/11 15:59:21;;;;;;;32.45;17.85;;;;;;;11.93;45.13;101113.91;4913362;29;20123;-79
2022/03/11 16:01:47;;;;;;;37.95;19.33;;;;;;;11.91;44.94;101118.34;4913760;29;20132;-81
2022/03/11 16:04:12;;;;;;;38.45;19.40;;;;;;;11.90;44.77;101126.22;4914872;29;20135;-74
2022/03/11 16:06:37;;;;;;;31.58;18.40;;;;;;;11.78;44.85;101100.13;4914404;29;20410;-78
2022/03/11 16:09:03;;;;;;;30.60;19.38;;;;;;;11.94;43.93;101131.09;4914788;29;20539;-73
2022/03/11 16:11:29;;;;;;;29.15;18.20;;;;;;;11.89;43.89;101120.19;4914430;29;20060;-77
2022/03/11 16:13:54;;;;;;;31.60;16.95;;;;;;;11.99;43.40;101136.78;4914581;29;20071;-77
2022/03/11 16:16:20;;;;;;;32.50;18.58;;;;;;;11.98;43.98;101126.53;4914799;29;20035;-78
2022/03/11 16:18:49;;;;;;;32.42;18.23;;;;;;;11.96;43.77;101131.00;4914084;29;20032;-77
2022/03/11 16:21:16;;;;;;;30.45;19.15;;;;;;;11.61;43.97;101071.13;4914386;29;20036;-81
2022/03/11 16:23:53;;;;;;;36.92;19.08;;;;;;;12.02;43.46;101144.38;4914396;29;20064;-78
2022/03/11 16:26:22;;;;;;;32.75;18.27;;;;;;;12.01;43.50;101134.13;4914355;29;20028;-76
2022/03/11 16:28:48;;;;;;;32.67;17.98;;;;;;;11.99;43.56;101141.97;4930574;29;20412;-81
2022/03/11 16:31:13;;;;;;;34.25;18.83;;;;;;;11.98;43.19;101142.91;4935722;29;20032;-76
2022/03/11 16:33:39;;;;;;;31.15;17.65;;;;;;;11.91;43.05;101133.06;4935833;28;20035;-79
2022/03/11 16:36:07;;;;;;;34.00;17.67;;;;;;;11.87;43.20;101126.41;4935614;29;20031;-79
2022/03/11 16:38:33;;;;;;;32.97;18.75;;;;;;;11.77;43.66;101124.34;4935657;29;20059;-81
2022/03/11 16:40:58;;;;;;;40.53;19.08;;;;;;;11.84;43.57;101142.13;4935346;29;20020;-79
2022/03/11 16:43:23;;;;;;;34.28;18.50;;;;;;;10.88;43.67;100989.47;5034417;23;20063;-76
2022/03/11 16:45:55;;;;;;;36.28;19.15;;;;;;;11.69;44.57;101142.13;4935346;29;20506;-78
2022/03/11 17:11:32;;;;;;;35.22;18.90;;;;;;;11.00;43.75;101170.50;5768780;23;20052;-78
2022/03/11 17:13:57;;;;;;;35.13;21.10;;;;;;;10.66;43.92;101131.16;4934296;28;20174;-75
2022/03/11 17:16:23;;;;;;;42.40;20.08;;;;;;;10.84;44.08;101171.44;4935917;28;20115;-85
2022/03/11 17:18:49;;;;;;;36.47;20.00;;;;;;;10.43;44.12;101118.78;4934916;29;20106;-79
2022/03/11 17:21:15;;;;;;;35.92;20.58;;;;;;;10.45;44.25;101130.66;4935117;29;20028;-78
2022/03/11 17:23:49;;;;;;;35.88;19.83;;;;;;;10.68;44.67;101172.41;4936695;28;20050;-81
2022/03/11 17:26:24;;;;;;;35.88;20.50;;;;;;;9.60;44.96;101007.31;4934443;29;20080;-78
2022/03/11 17:28:56;;;;;;;35.78;19.83;;;;;;;10.54;44.52;101176.63;4934844;29;20035;-78
2022/03/11 17:31:28;;;;;;;36.38;21.00;;;;;;;9.45;44.74;101015.94;4935017;29;20038;-77
2022/03/11 17:34:00;;;;;;;;;;;;;;;10.41;45.46;101183.38;4935626;28;20417;-79
2022/03/11 17:39:30;;;;;;;39.87;20.67;;;;;;;9.19;45.93;101014.75;4934169;29;20047;-83
2022/03/11 17:42:38;;;;;;;37.83;20.65;;;;;;;10.15;45.72;101189.16;4935510;29;20316;-83
2022/03/11 17:45:05;;;;;;;39.13;20.92;;;;;;;10.11;45.75;101190.22;4949122;29;20039;-84
2022/03/11 17:47:33;;;;;;;40.47;21.08;;;;;;;10.06;45.46;101199.06;4935225;29;20055;-81
2022/03/11 17:49:59;;;;;;;34.65;21.73;;;;;;;10.04;45.92;101207.81;4934911;29;20083;-75
2022/03/11 17:52:25;;;;;;;36.50;19.88;;;;;;;9.99;45.64;101205.47;4934662;29;20031;-74
2022/03/11 17:54:52;;;;;;;36.80;20.73;;;;;;;9.98;45.86;101203.81;4934718;29;20031;-77
2022/03/11 17:57:20;;;;;;;36.20;20.52;;;;;;;9.95;45.90;101198.00;4934816;29;20019;-75
2022/03/11 17:59:53;;;;;;;34.80;20.50;;;;;;;9.60;46.40;101156.03;4934578;28;20365;-76
2022/03/11 18:02:19;;;;;;;42.03;21.17;;;;;;;9.77;45.74;101180.00;4934648;29;20044;-76
2022/03/11 18:04:45;;;;;;;40.85;20.50;;;;;;;9.86;46.82;101203.66;4934923;29;20028;-76
2022/03/11 18:07:11;;;;;;;37.72;20.85;;;;;;;9.85;46.25;101200.22;4934519;29;20385;-77
2022/03/11 18:09:44;;;;;;;38.95;21.40;;;;;;;9.55;46.63;101152.88;4936444;29;20023;-76
2022/03/11 18:12:10;;;;;;;34.92;20.40;;;;;;;9.72;47.21;101191.47;4938026;28;20079;-77
2022/03/11 18:14:36;;;;;;;34.55;18.83;;;;;;;9.81;46.40;101200.47;4937893;29;20019;-80
2022/03/11 18:17:01;;;;;;;35.17;21.05;;;;;;;9.69;46.69;101194.22;4937991;29;20035;-80
2022/03/11 18:19:45;;;;;;;38.42;19.77;;;;;;;9.78;46.64;101207.47;4937856;29;20481;-80
2022/03/11 18:22:10;;;;;;;40.50;20.33;;;;;;;9.77;46.47;101210.13;4937720;28;20027;-79
2022/03/11 18:24:38;;;;;;;36.70;20.48;;;;;;;9.67;46.17;101185.75;4937746;29;20050;-80
2022/03/11 18:27:04;;;;;;;38.30;19.80;;;;;;;9.06;45.87;101089.31;4937434;29;20473;-80
2022/03/11 18:29:30;;;;;;;41.45;21.10;;;;;;;9.80;45.77;101212.53;4937490;29;20023;-80
2022/03/11 18:31:56;;;;;;;37.40;19.55;;;;;;;9.80;46.54;101211.69;4937753;29;20023;-81
2022/03/11 18:34:22;;;;;;;36.13;20.58;;;;;;;9.70;45.49;101199.28;4937621;29;20038;-81
2022/03/11 18:36:49;;;;;;;35.08;19.83;;;;;;;9.61;45.36;101188.63;4937502;29;20083;-81
2022/03/11 18:39:15;;;;;;;32.17;20.35;;;;;;;9.68;45.26;101187.41;4937836;29;20040;-82
2022/03/11 18:41:44;;;;;;;38.20;21.05;;;;;;;9.57;45.05;101167.34;4937456;29;20134;-81
2022/03/11 18:44:09;;;;;;;38.35;21.20;;;;;;;9.77;45.06;101205.81;4937524;29;20032;-81
2022/03/11 18:46:35;;;;;;;34.08;19.40;;;;;;;9.51;45.31;101166.84;4937405;29;20079;-77
2022/03/11 18:49:32;;;;;;;32.88;18.33;;;;;;;9.74;45.01;101211.13;4937245;29;20079;-80
2022/03/11 18:51:59;;;;;;;32.30;19.42;;;;;;;9.71;44.94;101211.28;4937381;29;20031;-77
2022/03/11 18:54:25;;;;;;;38.75;20.02;;;;;;;9.48;45.12;101178.97;4937090;29;20031;-79
2022/03/11 18:57:09;;;;;;;32.15;19.65;;;;;;;9.67;45.15;101209.78;4937263;29;20536;-77
2022/03/11 19:02:26;;;;;;;31.92;18.75;;;;;;;8.31;45.32;100997.88;4958621;23;20059;-77
2022/03/11 19:04:58;;;;;;;38.22;20.95;;;;;;;9.59;45.12;101203.34;4937089;29;20027;-74
2022/03/11 19:07:24;;;;;;;31.95;19.60;;;;;;;9.42;44.83;101186.19;4935812;29;20123;-77
2022/03/11 19:09:49;;;;;;;36.10;20.17;;;;;;;9.48;44.88;101185.88;4936951;29;20439;-77
2022/03/11 19:12:16;;;;;;;31.77;19.05;;;;;;;9.40;44.04;101180.28;4936992;29;20036;-77
2022/03/11 19:14:44;;;;;;;30.98;18.33;;;;;;;9.59;44.50;101211.94;4936572;29;20106;-77
2022/03/11 19:17:11;;;;;;;31.23;19.70;;;;;;;9.52;44.22;101199.44;4936792;29;20094;-78
2022/03/11 19:19:37;;;;;;;30.95;19.08;;;;;;;9.59;44.31;101218.84;4937291;28;20047;-77
2022/03/11 19:22:22;;;;;;;31.25;17.58;;;;;;;8.58;44.30;101043.75;4951405;28;20251;-77
2022/03/11 19:24:54;;;;;;;31.52;18.52;;;;;;;9.61;44.30;101217.00;4965283;28;20123;-77
2022/03/11 19:27:23;;;;;;;31.52;18.40;;;;;;;9.19;43.74;101149.56;4936703;29;20024;-77
2022/03/11 19:29:49;;;;;;;30.80;18.55;;;;;;;9.38;43.69;101182.94;4936535;28;20037;-77
2022/03/11 19:32:15;;;;;;;31.58;18.10;;;;;;;9.37;43.68;101189.03;4936778;28;20504;-78
2022/03/11 19:34:41;;;;;;;32.83;17.80;;;;;;;9.38;44.05;101195.00;4936498;28;20056;-77
2022/03/11 19:37:09;;;;;;;38.70;19.70;;;;;;;9.49;43.53;101226.22;4936662;28;20023;-77
2022/03/11 19:39:36;;;;;;;31.33;18.27;;;;;;;9.46;44.24;101226.38;4936654;29;20122;-78
2022/03/11 19:42:05;;;;;;;29.55;18.10;;;;;;;9.42;43.51;101224.84;4936455;29;20050;-76
2022/03/11 19:44:34;;;;;;;29.45;18.80;;;;;;;9.26;43.91;101204.22;4936068;29;20028;-76
2022/03/11 19:47:00;;;;;;;34.33;19.17;;;;;;;9.38;43.75;101226.78;4936245;28;20036;-77
2022/03/11 19:49:26;;;;;;;36.85;17.60;;;;;;;9.37;43.77;101232.00;4936501;28;20453;-77